createdAt,value
2023-12-20T00:02:35.205Z,1.65
2023-12-20T00:07:38.487Z,1.20
2023-12-20T00:12:42.477Z,0.60
2023-12-20T00:17:45.737Z,0.80
2023-12-20T00:22:48.801Z,0.85
2023-12-20T00:27:51.975Z,0.60
2023-12-20T00:32:55.416Z,0.98
2023-12-20T00:38:00.069Z,0.73
2023-12-20T00:43:03.120Z,1.73
2023-12-20T00:48:06.641Z,0.88
2023-12-20T00:53:10.089Z,1.27
2023-12-20T00:58:13.455Z,1.30
2023-12-20T01:03:16.837Z,1.05
2023-12-20T01:08:20.105Z,1.30
2023-12-20T01:13:23.306Z,1.27
2023-12-20T01:18:26.487Z,0.98
2023-12-20T01:23:29.531Z,0.63
2023-12-20T01:28:32.776Z,1.02
2023-12-20T01:33:35.810Z,1.80
2023-12-20T01:38:39.428Z,1.40
2023-12-20T01:43:50.592Z,1.50
2023-12-20T01:48:55.019Z,1.77
2023-12-20T01:54:17.897Z,1.45
2023-12-20T01:59:22.855Z,1.08
2023-12-20T02:04:28.421Z,1.52
2023-12-20T02:09:31.918Z,1.00
2023-12-20T02:14:35.117Z,1.30
2023-12-20T02:19:38.303Z,1.65
2023-12-20T02:24:41.390Z,1.95
2023-12-20T02:29:44.411Z,1.70
2023-12-20T02:34:49.826Z,1.90
2023-12-20T02:39:53.189Z,0.77
2023-12-20T02:44:56.210Z,0.82
2023-12-20T02:49:59.488Z,1.55
2023-12-20T02:55:03.028Z,2.05
2023-12-20T03:00:07.486Z,1.30
2023-12-20T03:05:10.524Z,1.30
2023-12-20T03:10:19.977Z,0.98
2023-12-20T03:15:27.096Z,1.23
2023-12-20T03:20:30.261Z,1.20
2023-12-20T03:25:33.804Z,1.08
2023-12-20T03:30:36.828Z,1.52
2023-12-20T03:35:40.008Z,2.75
2023-12-20T03:40:43.235Z,2.15
2023-12-20T03:45:46.498Z,2.47
2023-12-20T03:50:49.560Z,2.25
2023-12-20T03:55:53.086Z,2.63
2023-12-20T04:00:56.492Z,1.35
2023-12-20T04:05:59.697Z,2.25
2023-12-20T04:11:02.926Z,2.60
2023-12-20T04:16:06.181Z,2.63
2023-12-20T04:21:09.200Z,3.45
2023-12-20T04:26:12.330Z,4.60
2023-12-20T04:31:15.488Z,2.47
2023-12-20T04:36:18.870Z,3.65
2023-12-20T04:41:21.917Z,3.80
2023-12-20T04:46:25.111Z,3.55
2023-12-20T04:51:28.975Z,4.15
2023-12-20T04:56:32.319Z,2.75
2023-12-20T05:01:35.541Z,4.20
2023-12-20T05:06:39.030Z,3.90
2023-12-20T05:11:42.128Z,4.78
2023-12-20T05:16:45.244Z,5.15
2023-12-20T05:21:48.210Z,2.80
2023-12-20T05:26:53.762Z,4.28
2023-12-20T05:31:57.242Z,4.03
2023-12-20T05:37:00.477Z,4.68
2023-12-20T05:42:03.718Z,5.55
2023-12-20T05:47:07.009Z,5.45
2023-12-20T05:52:10.246Z,5.53
2023-12-20T05:57:13.968Z,5.50
2023-12-20T06:02:17.119Z,4.88
2023-12-20T06:07:21.080Z,5.03
2023-12-20T06:12:24.295Z,5.07
2023-12-20T06:17:27.460Z,4.43
2023-12-20T06:22:31.016Z,4.30
2023-12-20T06:27:34.286Z,4.65
2023-12-20T06:32:37.460Z,3.83
2023-12-20T06:37:44.116Z,4.60
2023-12-20T06:42:58.943Z,5.20
2023-12-20T06:48:08.730Z,5.00
2023-12-20T06:53:11.786Z,3.83
2023-12-20T06:58:15.254Z,3.75
2023-12-20T07:03:36.993Z,4.68
2023-12-20T07:08:41.656Z,4.93
2023-12-20T07:13:44.903Z,5.00
2023-12-20T07:18:48.596Z,3.90
2023-12-20T07:23:51.693Z,4.80
2023-12-20T07:28:54.821Z,3.97
2023-12-20T07:34:16.919Z,4.90
2023-12-20T07:39:20.819Z,3.50
2023-12-20T07:44:23.926Z,4.20
2023-12-20T07:49:27.472Z,3.63
2023-12-20T07:54:30.866Z,5.63
2023-12-20T07:59:34.392Z,4.78
2023-12-20T08:04:37.638Z,3.70
2023-12-20T08:09:40.630Z,5.03
2023-12-20T08:14:43.855Z,4.15
2023-12-20T08:19:47.000Z,4.80
2023-12-20T08:24:50.184Z,6.45
2023-12-20T08:29:53.387Z,4.57
2023-12-20T08:34:56.577Z,6.57
2023-12-20T08:39:59.774Z,5.78
2023-12-20T08:45:02.864Z,6.95
2023-12-20T08:50:07.458Z,5.57
2023-12-20T08:55:12.077Z,5.68
2023-12-20T09:05:18.614Z,4.28
2023-12-20T09:10:23.783Z,5.22
2023-12-20T09:15:27.969Z,6.13
2023-12-20T09:20:31.631Z,5.68
2023-12-20T09:25:35.056Z,6.82
2023-12-20T09:30:41.735Z,7.30
2023-12-20T09:35:45.826Z,6.20
2023-12-20T09:40:49.461Z,6.40
2023-12-20T09:45:55.224Z,5.43
2023-12-20T09:50:58.662Z,6.97
2023-12-20T09:56:02.036Z,8.50
2023-12-20T10:01:05.836Z,6.15
2023-12-20T10:06:09.384Z,6.95
2023-12-20T10:11:31.371Z,8.98
2023-12-20T10:16:35.437Z,7.25
2023-12-20T10:21:38.701Z,5.28
2023-12-20T10:26:41.772Z,7.53
2023-12-20T10:31:46.454Z,6.82
2023-12-20T10:36:49.924Z,8.68
2023-12-20T10:41:53.335Z,5.35
2023-12-20T10:47:00.033Z,6.00
2023-12-20T10:52:05.588Z,7.40
2023-12-20T10:57:09.438Z,3.90
2023-12-20T11:02:13.126Z,4.78
2023-12-20T11:07:27.330Z,4.93
2023-12-20T11:12:55.585Z,3.85
2023-12-20T11:18:00.460Z,4.72
2023-12-20T11:23:04.281Z,3.80
2023-12-20T11:28:12.168Z,4.70
2023-12-20T11:33:17.058Z,4.60
2023-12-20T11:38:22.370Z,5.00
2023-12-20T11:43:37.848Z,4.80
2023-12-20T11:48:45.727Z,4.00
2023-12-20T11:53:54.789Z,2.97
2023-12-20T11:59:06.359Z,3.85
2023-12-20T12:04:17.097Z,4.38
2023-12-20T12:09:20.715Z,4.18
2023-12-20T12:14:23.874Z,5.75
2023-12-20T12:19:28.340Z,4.40
2023-12-20T12:29:35.017Z,4.03
2023-12-20T12:34:38.294Z,4.57
2023-12-20T12:39:41.987Z,3.78
2023-12-20T12:44:45.100Z,4.97
2023-12-20T12:49:48.424Z,2.95
2023-12-20T12:54:51.756Z,4.22
2023-12-20T12:59:55.109Z,4.72
2023-12-20T13:04:58.656Z,3.45
2023-12-20T13:10:01.955Z,3.90
2023-12-20T13:15:07.497Z,4.15
2023-12-20T13:20:10.754Z,3.50
2023-12-20T13:25:13.889Z,4.90
2023-12-20T13:30:20.164Z,4.53
2023-12-20T13:35:23.548Z,4.93
2023-12-20T13:40:26.884Z,4.32
2023-12-20T13:45:30.029Z,3.58
2023-12-20T13:50:33.208Z,5.15
2023-12-20T13:55:36.557Z,6.25
2023-12-20T14:00:39.692Z,7.75
2023-12-20T14:05:43.317Z,7.45
2023-12-20T14:10:46.578Z,5.72
2023-12-20T14:15:50.777Z,4.40
2023-12-20T14:20:55.375Z,5.72
2023-12-20T14:26:00.244Z,5.93
2023-12-20T14:31:03.601Z,6.15
2023-12-20T14:36:07.517Z,6.35
2023-12-20T14:41:10.724Z,10.20
2023-12-20T14:46:13.996Z,12.32
2023-12-20T14:51:17.296Z,13.52
2023-12-20T14:56:21.837Z,10.80
2023-12-20T15:01:25.310Z,11.45
2023-12-20T15:06:28.954Z,14.82
2023-12-20T15:11:36.967Z,13.60
2023-12-20T15:16:40.071Z,12.30
2023-12-20T15:21:47.054Z,10.20
2023-12-20T15:26:51.422Z,12.98
2023-12-20T15:32:13.182Z,12.65
2023-12-20T15:37:16.692Z,14.15
2023-12-20T15:42:20.865Z,9.05
2023-12-20T15:47:24.929Z,9.98
2023-12-20T15:52:32.599Z,13.23
2023-12-20T15:57:45.298Z,12.10
2023-12-20T16:02:55.465Z,11.27
2023-12-20T16:07:59.231Z,10.07
2023-12-20T16:13:02.981Z,13.15
2023-12-20T16:18:12.437Z,10.85
2023-12-20T16:23:15.690Z,11.50
2023-12-20T16:28:18.991Z,13.75
2023-12-20T16:33:22.188Z,17.25
2023-12-20T16:38:25.439Z,11.55
2023-12-20T16:43:28.582Z,18.75
2023-12-20T16:48:32.036Z,17.02
2023-12-20T16:53:35.124Z,20.65
2023-12-20T16:58:38.435Z,16.80
2023-12-20T17:03:41.488Z,15.35
2023-12-20T17:08:45.224Z,25.77
2023-12-20T17:13:48.640Z,24.65
2023-12-20T17:18:51.829Z,28.38
2023-12-20T17:23:55.090Z,30.45
2023-12-20T17:28:58.349Z,32.20
2023-12-20T17:34:01.587Z,32.80
2023-12-20T17:39:06.065Z,29.08
2023-12-20T17:44:09.267Z,31.00
2023-12-20T17:49:12.353Z,22.60
2023-12-20T17:54:15.716Z,24.60
2023-12-20T17:59:18.872Z,23.67
2023-12-20T18:04:22.184Z,24.48
2023-12-20T18:09:25.424Z,32.15
2023-12-20T18:14:29.016Z,25.25
2023-12-20T18:19:32.434Z,31.08
2023-12-20T18:24:35.722Z,29.08
2023-12-20T18:29:38.818Z,22.45
2023-12-20T18:34:42.152Z,26.63
2023-12-20T18:39:45.343Z,29.70
2023-12-20T18:44:48.627Z,32.00
2023-12-20T18:49:51.787Z,24.70
2023-12-20T18:54:55.112Z,28.83
2023-12-20T19:00:01.193Z,25.15
2023-12-20T19:05:08.409Z,25.15
2023-12-20T19:10:12.850Z,23.10
2023-12-20T19:15:17.097Z,28.90
2023-12-20T19:20:22.269Z,23.33
2023-12-20T19:25:25.439Z,25.83
2023-12-20T19:30:29.086Z,25.27
2023-12-20T19:35:32.495Z,21.50
2023-12-20T19:40:35.656Z,24.13
2023-12-20T19:45:38.824Z,21.92
2023-12-20T19:50:42.056Z,26.65
2023-12-20T19:55:46.460Z,22.75
2023-12-20T20:00:55.253Z,27.23
2023-12-20T20:05:59.731Z,28.60
2023-12-20T20:11:03.185Z,22.67
2023-12-20T20:16:06.765Z,28.95
2023-12-20T20:21:09.859Z,24.67
2023-12-20T20:26:15.500Z,23.38
2023-12-20T20:31:18.709Z,21.10
2023-12-20T20:36:21.830Z,31.35
2023-12-20T20:41:24.921Z,27.55
2023-12-20T20:46:30.045Z,25.50
2023-12-20T20:51:33.423Z,31.70
2023-12-20T20:56:36.988Z,34.55
2023-12-20T21:01:40.408Z,26.95
2023-12-20T21:06:43.658Z,30.23
2023-12-20T21:11:47.027Z,24.42
2023-12-20T21:16:50.221Z,20.27
2023-12-20T21:21:53.556Z,23.25
2023-12-20T21:26:56.789Z,25.23
2023-12-20T21:32:00.159Z,31.33
2023-12-20T21:37:03.574Z,25.42
2023-12-20T21:42:06.899Z,33.15
2023-12-20T21:47:28.538Z,26.55
2023-12-20T21:52:31.830Z,30.30
2023-12-20T21:57:34.952Z,16.27
2023-12-20T22:02:38.264Z,20.70
2023-12-20T22:07:41.942Z,21.42
2023-12-20T22:12:45.689Z,23.80
2023-12-20T22:17:52.149Z,24.60
2023-12-20T22:22:55.280Z,22.75
2023-12-20T22:27:58.497Z,22.13
2023-12-20T22:33:01.812Z,19.85
2023-12-20T22:38:05.201Z,18.08
2023-12-20T22:43:08.551Z,16.60
2023-12-20T22:48:11.927Z,13.18
2023-12-20T22:53:15.131Z,16.40
2023-12-20T22:58:18.905Z,20.95
2023-12-20T23:03:26.569Z,15.40
2023-12-20T23:08:30.571Z,22.35
2023-12-20T23:13:34.057Z,20.95
2023-12-20T23:18:37.300Z,14.48
2023-12-20T23:23:40.487Z,21.70
2023-12-20T23:28:43.737Z,26.02
2023-12-20T23:33:47.279Z,21.08
2023-12-20T23:38:50.467Z,25.13
2023-12-20T23:43:53.543Z,16.42
2023-12-20T23:48:56.885Z,24.65
2023-12-20T23:53:59.976Z,18.95
2023-12-20T23:59:03.198Z,19.48
